Flight Track Log - Related Links

Times and Time Zones

All times are in EDT time to prevent confusion due to time zone crossing. See the BOE5 flight status page for this flight to view local times or setup timezone preferences in your user account.

Time Position Orientation Groundspeed Altitude Reporting Facility
EDT Latitude Longitude Course Direction KTS MPH feet Rate Location/Type
Fri 12:56:23 PM 47.8990 -122.2850 178° South 167 192 1,500  Level FlightAware ADS-B
Fri 12:56:43 PM 47.8820 -122.2840 178° South 202 232 2,500 2,286 Climbing FlightAware ADS-B
Fri 12:57:05 PM 47.8610 -122.2820 176° South 211 243 3,100 840 Climbing FlightAware ADS-B
Fri 12:57:33 PM 47.8340 -122.2900 191° South 212 244 3,200 115 Climbing FlightAware ADS-B
Fri 12:57:57 PM 47.8160 -122.3120 219° Southwest 214 246 3,200  Level FlightAware ADS-B
Fri 12:58:15 PM 47.8020 -122.3290 219° Southwest 211 243 3,200  Level FlightAware ADS-B
Fri 12:58:39 PM 47.7850 -122.3500 220° Southwest 213 245 3,200 -136 Level FlightAware ADS-B
Fri 12:58:59 PM 47.7690 -122.3690 219° Southwest 213 245 3,100 -486 Descending FlightAware ADS-B
Fri 12:59:16 PM 47.7560 -122.3830 216° Southwest 208 239 2,900 -558 Descending FlightAware ADS-B
Fri 12:59:42 PM 47.7370 -122.4060 219° Southwest 191 220 2,700 -522 Descending FlightAware ADS-B
Fri 01:00:02 PM 47.7240 -122.4200 216° Southwest 184 212 2,500 -429 Descending FlightAware ADS-B
Fri 01:00:10 PM 47.7170 -122.4250 206° Southwest 179 206 2,500 -500 Level FlightAware ADS-B
Fri 01:00:14 PM 47.7140 -122.4260 193° South 177 204 2,400 -500 Descending FlightAware ADS-B
Fri 01:00:22 PM 47.7090 -122.4270 188° South 174 200 2,400  Level FlightAware ADS-B
Fri 01:00:44 PM 47.6900 -122.4250 176° South 166 191 2,400  Level FlightAware ADS-B
Fri 01:01:04 PM 47.6750 -122.4230 175° South 168 193 2,400  Level FlightAware ADS-B
Fri 01:01:20 PM 47.6640 -122.4200 170° South 171 197 2,400  Level FlightAware ADS-B
Fri 01:01:24 PM 47.6590 -122.4170 158° South 173 199 2,400  Level FlightAware ADS-B
Fri 01:01:32 PM 47.6540 -122.4120 146° Southeast 174 200 2,400  Level FlightAware ADS-B
Fri 01:01:40 PM 47.6490 -122.4060 141° Southeast 176 203 2,400  Level FlightAware ADS-B
Fri 01:01:52 PM 47.6420 -122.3970 139° Southeast 176 203 2,400 -214 Level FlightAware ADS-B
Fri 01:02:08 PM 47.6310 -122.3870 149° Southeast 176 203 2,300 -632 Descending FlightAware ADS-B
Fri 01:02:30 PM 47.6160 -122.3750 152° Southeast 161 185 2,000 -900 Descending FlightAware ADS-B
Fri 01:02:48 PM 47.6040 -122.3660 153° Southeast 153 176 1,700 -900 Descending FlightAware ADS-B
Fri 01:03:10 PM 47.5910 -122.3540 148° Southeast 149 171 1,400 -727 Descending FlightAware ADS-B
Fri 01:03:21 PM 47.5850 -122.3490 151° Southeast 148 170 1,300 -436 Descending FlightAware ADS-B
Fri 01:04:05 PM 47.5630 -122.3300 150° Southeast 136 157 1,000 -462 Descending FlightAware ADS-B
Fri 01:05:18 PM 47.5267 -122.3008 150° Southeast 139 160 400 -493 Descending Seattle Center

Login

Don't have an account? Register now (free) for customized features, flight alerts, and more!